^^

Metar de toute la France(point de départ, Chateauroux, classé dans l'ordre alphabétique actualisée toutes les 30 minutes)






LFBA - Agen/, France
Distance de la station: SSO 307km
Mise à jour: 24/10/2014 17:00
partiellement nuageux
partiellement nuageux
 Wind from calm
Vent: Vent calme
Température: 21°C
Point de Rosée: 4°C
Humidité: 33%
Baromètre: 1018 hPa
Nuages: partiellement nuageux
Visibilité: 10 km
2014/10/24 15:00 LFBA 241500Z AUTO 00000KT 9999 NSC 21/04 Q1018
LFLP - Annecy/, France
Distance de la station: ESE 352km
Mise à jour: 24/10/2014 17:00
partiellement nuageux
partiellement nuageux
 Wind from variable
Vent: variable 6 km/h
Température: 14°C
Point de Rosée: 5°C
Humidité: 55%
Baromètre: 1019 hPa
Nuages: partiellement nuageux
Visibilité: 10 km
2014/10/24 15:00 LFLP 241500Z AUTO VRB03KT 9999 NSC 14/05 Q1019
 
LFOA - Avord/ , France
Distance de la station: ENE 76km
Mise à jour: 24/10/2014 17:00
partiellement nuageux
partiellement nuageux
 Wind from SSE
Vent: SSE 9 km/h
Température: 15°C
Point de Rosée: 8°C
Humidité: 63%
Baromètre: 1019 hPa
Nuages: partiellement nuageux
Visibilité: 10 km
2014/10/24 15:00 LFOA 241500Z AUTO 16005KT 130V190 9999 NSC 15/08 Q1019
LFSB - Bale/, France
Distance de la station: ENE 449km
Mise à jour: 24/10/2014 17:00
clair
clair
 Wind from SE
Vent: SE 13 km/h
Température: 13°C
Point de Rosée: 6°C
Humidité: 63%
Baromètre: 1020 hPa
Récapitulatifs: clair
Visibilité: supérieure à 10 km
2014/10/24 15:00 LFSB 241500Z 14007KT 090V170 CAVOK 13/06 Q1020 NOSIG
 
LFOB - Beauvais/, France
Distance de la station: N 296km
Mise à jour: 24/10/2014 17:00
faible pluie, Couvert
faible pluie, Couvert
 Wind from SSO
Vent: SSO 17 km/h
Température: 13°C
Point de Rosée: 11°C
Humidité: 88%
Baromètre: 1018 hPa
Récapitulatifs: faible pluie
Nuages: Couvert
Visibilité: 10 km
Nuages details: Couvert 671 m
2014/10/24 15:00 LFOB 241500Z AUTO 20009KT 9999 -RA OVC022 13/11 Q1018
LFBE - Bergerac/, France
Distance de la station: SSO 240km
Mise à jour: 24/10/2014 17:00
partiellement nuageux
partiellement nuageux
 Wind from calm
Vent: Vent calme
Température: 20°C
Point de Rosée: 10°C
Humidité: 53%
Baromètre: 1018 hPa
Nuages: partiellement nuageux
Visibilité: 10 km
2014/10/24 15:00 LFBE 241500Z AUTO 00000KT 9999 NSC 20/10 Q1018
 
LFMU - Beziers/, France
Distance de la station: SSE 411km
Mise à jour: 24/10/2014 17:00
partiellement nuageux
partiellement nuageux
 Wind from NO
Vent: NO 24 km/h
Température: 25°C
Point de Rosée: 7°C
Humidité: 32%
Baromètre: 1015 hPa
Nuages: partiellement nuageux
Visibilité: 10 km
2014/10/24 15:00 LFMU 241500Z AUTO 32013KT 9999 NSC 25/07 Q1015
LFBZ - Biarritz/, France
Distance de la station: SO 449km
Mise à jour: 24/10/2014 17:00
clair
clair
 Wind from variable
Vent: variable 4 km/h
Température: 25°C
Point de Rosée: 7°C
Humidité: 32%
Baromètre: 1018 hPa
Récapitulatifs: clair
Visibilité: supérieure à 10 km
2014/10/24 15:00 LFBZ 241500Z VRB02KT CAVOK 25/07 Q1018 NOSIG
 
LFBD - Bordeaux/, France
Distance de la station: SO 289km
Mise à jour: 24/10/2014 17:00
partiellement nuageux
partiellement nuageux
 Wind from SE
Vent: SE 9 km/h
Température: 21°C
Point de Rosée: 8°C
Humidité: 43%
Baromètre: 1018 hPa
Nuages: partiellement nuageux
Visibilité: 10 km
2014/10/24 15:00 LFBD 241500Z AUTO 14005KT 9999 NSC 21/08 Q1018
LFAQ - Bray/, France
Distance de la station: N 358km
Mise à jour: 24/10/2014 17:00
Bruine Légère, Broulliard, Couvert
Bruine Légère, Broulliard, Couvert
 Wind from S
Vent: S 17 km/h
Température: 12°C
Point de Rosée: 11°C
Humidité: 94%
Baromètre: 1017 hPa
Récapitulatifs: Bruine Légère, Broulliard
Nuages: Couvert
Visibilité: 3 km
Nuages details: nuageux 274 m
Couvert 518 m
2014/10/24 15:00 LFAQ 241500Z AUTO 18009KT 2700 -RADZ BR BKN009 OVC017 12/11 Q1017
 
LFRB - Brest/, France
Distance de la station: ONO 492km
Mise à jour: 24/10/2014 17:00
Couvert
Couvert
 Wind from O
Vent: O 9 km/h
Température: 16°C
Point de Rosée: 15°C
Humidité: 94%
Baromètre: 1015 hPa
Nuages: Couvert
Visibilité: 10 km
Nuages details: Couvert 183 m
2014/10/24 15:00 LFRB 241500Z 28005KT 230V310 9999 OVC006 16/15 Q1015 NOSIG
LFRK - Caen/, France
Distance de la station: NNO 306km
Mise à jour: 24/10/2014 17:00
Couvert
Couvert
 Wind from SO
Vent: SO 17 km/h
Température: 15°C
Point de Rosée: 12°C
Humidité: 82%
Baromètre: 1016 hPa
Nuages: Couvert
Visibilité: 10 km
Nuages details: nuageux 610 m
Couvert 1524 m
2014/10/24 15:00 LFRK 241500Z AUTO 22009KT 9999 BKN020 OVC050 15/12 Q1016
 
LFMK - Carcassonne/, France
Distance de la station: S 403km
Mise à jour: 24/10/2014 17:00
partiellement nuageux
partiellement nuageux
 Wind from O
Vent: O 19 km/h
Température: 22°C
Point de Rosée: 5°C
Humidité: 33%
Baromètre: 1017 hPa
Nuages: partiellement nuageux
Visibilité: 10 km
2014/10/24 15:00 LFMK 241500Z AUTO 27010KT 240V300 9999 NSC 22/05 Q1017
LFMV - Caumont/, France
Distance de la station: SE 410km
Mise à jour: 24/10/2014 17:00
partiellement nuageux
partiellement nuageux
 Wind from N
Vent: N 20 km/h
Température: 19°C
Point de Rosée: 5°C
Humidité: 40%
Baromètre: 1015 hPa
Nuages: partiellement nuageux
Visibilité: 10 km
2014/10/24 15:00 LFMV 241500Z AUTO 35011KT 310V030 9999 NSC 19/05 Q1015
 
LFBC - Cazaux/, France
Distance de la station: SO 336km
Mise à jour: 24/10/2014 17:00
partiellement nuageux
partiellement nuageux
 Wind from S
Vent: S 7 km/h
Température: 23°C
Point de Rosée: -6°C
Humidité: 14%
Baromètre: 1018 hPa
Nuages: partiellement nuageux
Visibilité: 10 km
2014/10/24 15:00 LFBC 241500Z AUTO 18004KT 9999 NSC 23/M06 Q1018
LFPC - Creil/, France
Distance de la station: NNE 278km
Mise à jour: 24/10/2014 17:00
Couvert
Couvert
 Wind from S
Vent: S 11 km/h
Température: 14°C
Point de Rosée: 9°C
Humidité: 72%
Baromètre: 1018 hPa
Nuages: Couvert
Visibilité: 10 km
Nuages details: Couvert 853 m
2014/10/24 15:00 LFPC 241500Z AUTO 19006KT 9999 OVC028 14/09 Q1018
 
LFLB - Chambery/, France
Distance de la station: ESE 348km
Mise à jour: 24/10/2014 17:00
clair
clair
 Wind from N
Vent: N 6 km/h
Température: 15°C
Point de Rosée: 7°C
Humidité: 59%
Baromètre: 1018 hPa
Récapitulatifs: clair
Visibilité: supérieure à 10 km
2014/10/24 15:00 LFLB 241500Z 35003KT 310V010 CAVOK 15/07 Q1018 NOSIG
LFOK - Chalons/, France
Distance de la station: NE 287km
Mise à jour: 24/10/2014 17:00
nuageux
nuageux
 Wind from S
Vent: S 11 km/h
Température: 13°C
Point de Rosée: 9°C
Humidité: 77%
Baromètre: 1019 hPa
Nuages: nuageux
Visibilité: 10 km
Nuages details: partiellement nuageux 1463 m
partiellement nuageux 4572 m
nuageux 5182 m
2014/10/24 15:00 LFOK 241500Z AUTO 19006KT 9999 SCT048 SCT150 BKN170 13/09 Q1019
 
LFOC - Chateaudun/, France
Distance de la station: N 137km
Mise à jour: 24/10/2014 17:00
partiellement nuageux
partiellement nuageux
 Wind from S
Vent: S 7 km/h
Température: 14°C
Point de Rosée: 11°C
Humidité: 82%
Baromètre: 1018 hPa
Nuages: partiellement nuageux
Visibilité: 10 km
2014/10/24 15:00 LFOC 241500Z AUTO 19004KT 9999 NSC 14/11 Q1018
LFLX - Chateauroux/, France
Distance de la station: NE 4km
Mise à jour: 24/10/2014 17:00
clair
clair
 Wind from SSE
Vent: SSE 7 km/h
Température: 15°C
Point de Rosée: 9°C
Humidité: 68%
Baromètre: 1018 hPa
Récapitulatifs: clair
Visibilité: supérieure à 10 km
2014/10/24 15:00 LFLX 241500Z 15004KT 100V190 CAVOK 15/09 Q1018 NOSIG
 
LFPG - Charles De Gaulle/, France
Distance de la station: NNE 252km
Mise à jour: 24/10/2014 17:00
nuageux
nuageux
 Wind from S
Vent: S 19 km/h
Température: 15°C
Point de Rosée: 9°C
Humidité: 68%
Baromètre: 1018 hPa
Nuages: nuageux
Visibilité: 10 km
Nuages details: nuageux 853 m
2014/10/24 15:00 LFPG 241500Z 19010KT 9999 BKN028 15/09 Q1018 NOSIG
LFRC - Cherbourg/, France
Distance de la station: NO 390km
Mise à jour: 24/10/2014 17:00
Faible bruine, Broulliard, Couvert
Faible bruine, Broulliard, Couvert
 Wind from SSO
Vent: SSO 24 km/h
Température: 14°C
Point de Rosée: 14°C
Humidité: 100%
Baromètre: 1015 hPa
Récapitulatifs: Faible bruine, Broulliard
Nuages: Couvert
Visibilité: 3 km
Nuages details: Couvert 122 m
2014/10/24 15:00 LFRC 241500Z AUTO 21013KT 2900 -DZ BR OVC004 14/14 Q1015
 
LFLC - Clermont/, France
Distance de la station: SE 163km
Mise à jour: 24/10/2014 17:00
clair
clair
 Wind from calm
Vent: Vent calme
Température: 17°C
Point de Rosée: 9°C
Humidité: 59%
Baromètre: 1018 hPa
Récapitulatifs: clair
Visibilité: supérieure à 10 km
2014/10/24 15:00 LFLC 241500Z 00000KT CAVOK 17/09 Q1018 NOSIG
LFBG - Cognac/, France
Distance de la station: SO 200km
Mise à jour: 24/10/2014 17:00
partiellement nuageux
partiellement nuageux
 Wind from S
Vent: S 6 km/h
Température: 19°C
Point de Rosée: 9°C
Humidité: 52%
Baromètre: 1018 hPa
Nuages: partiellement nuageux
Visibilité: 10 km
2014/10/24 15:00 LFBG 241500Z AUTO 18003KT 130V220 9999 NSC 19/09 Q1018
 
LFBY - Dax/, France
Distance de la station: SSO 411km
Mise à jour: 24/10/2014 17:00
clair
clair
 Wind from variable
Vent: variable 4 km/h
Température: 25°C
Point de Rosée: 5°C
Humidité: 28%
Baromètre: 1017 hPa
Nuages: clair
Visibilité: 10 km
2014/10/24 15:00 LFBY 241500Z AUTO VRB02KT 9999 // NCD 25/05 Q1017
LFSD - Dijon/, France
Distance de la station: ENE 261km
Mise à jour: 24/10/2014 17:00
partiellement nuageux
partiellement nuageux
 Wind from variable
Vent: variable 6 km/h
Température: 14°C
Point de Rosée: 7°C
Humidité: 63%
Baromètre: 1019 hPa
Nuages: partiellement nuageux
Visibilité: 10 km
2014/10/24 15:00 LFSD 241500Z AUTO VRB03KT 9999 NSC 14/07 Q1019
 
LFRD - Dinard/, France
Distance de la station: NO 342km
Mise à jour: 24/10/2014 17:00
Couvert
Couvert
 Wind from SSO
Vent: SSO 19 km/h
Température: 17°C
Point de Rosée: 14°C
Humidité: 83%
Baromètre: 1016 hPa
Nuages: Couvert
Visibilité: 10 km
Nuages details: Couvert 579 m
2014/10/24 15:00 LFRD 241500Z AUTO 20010KT 9999 OVC019 17/14 Q1016
LFGJ - Dole/, France
Distance de la station: E 286km
Mise à jour: 24/10/2014 17:00
partiellement nuageux
partiellement nuageux
 Wind from SO
Vent: SO 7 km/h
Température: 12°C
Point de Rosée: 8°C
Humidité: 77%
Baromètre: 1019 hPa
Nuages: partiellement nuageux
Visibilité: 10 km
2014/10/24 15:00 LFGJ 241500Z AUTO 22004KT 9999 NSC 12/08 Q1019
 
LFOE - Evreux/, France
Distance de la station: N 247km
Mise à jour: 24/10/2014 17:00
faible pluie, Couvert
faible pluie, Couvert
 Wind from SSO
Vent: SSO 13 km/h
Température: 12°C
Point de Rosée: 11°C
Humidité: 94%
Baromètre: 1018 hPa
Récapitulatifs: faible pluie
Nuages: Couvert
Visibilité: 10 km
Nuages details: nuageux 610 m
Couvert 1341 m
2014/10/24 15:00 LFOE 241500Z AUTO 20007KT 9999 -RA BKN020 OVC044 12/11 Q1018
LFMT - Frejorgues/, France
Distance de la station: SSE 403km
Mise à jour: 24/10/2014 17:00
clair
clair
 Wind from ENE
Vent: ENE 11 km/h
Température: 23°C
Point de Rosée: 11°C
Humidité: 47%
Baromètre: 1014 hPa
Récapitulatifs: clair
Visibilité: supérieure à 10 km
2014/10/24 15:00 LFMT 241500Z 06006KT 030V090 CAVOK 23/11 Q1014 NOSIG
 
LFMI - Istres/, France
Distance de la station: SE 446km
Mise à jour: 24/10/2014 17:00
partiellement nuageux
partiellement nuageux
 Wind from N
Vent: N 24 km/h
Température: 20°C
Point de Rosée: 5°C
Humidité: 38%
Baromètre: 1014 hPa
Nuages: partiellement nuageux
Visibilité: 10 km
2014/10/24 15:00 LFMI 241500Z AUTO 35013KT 9999 NSC 20/05 Q1014
LFLS - Grenoble/, France
Distance de la station: ESE 323km
Mise à jour: 24/10/2014 17:00
partiellement nuageux
partiellement nuageux
 Wind from NNO
Vent: NNO 11 km/h
Température: 14°C
Point de Rosée: 7°C
Humidité: 63%
Baromètre: 1019 hPa
Nuages: partiellement nuageux
Visibilité: 10 km
2014/10/24 15:00 LFLS 241500Z AUTO 33006KT 9999 NSC 14/07 Q1019
 
LFBH - La Rochelle/, France
Distance de la station: OSO 229km
Mise à jour: 24/10/2014 17:00
partiellement nuageux
partiellement nuageux
 Wind from S
Vent: S 9 km/h
Température: 17°C
Point de Rosée: 10°C
Humidité: 64%
Baromètre: 1018 hPa
Nuages: partiellement nuageux
Visibilité: 10 km
2014/10/24 15:00 LFBH 241500Z AUTO 19005KT 9999 NSC 17/10 Q1018
LFRI - La Roche Sur Yon/, France
Distance de la station: O 233km
Mise à jour: 24/10/2014 17:00
partiellement nuageux
partiellement nuageux
 Wind from S
Vent: S 7 km/h
Température: 17°C
Point de Rosée: 10°C
Humidité: 64%
Baromètre: 1018 hPa
Nuages: partiellement nuageux
Visibilité: 10 km
2014/10/24 15:00 LFRI 241500Z AUTO 18004KT 9999 NSC 17/10 Q1018
 
LFOH - Le Havre/, France
Distance de la station: NNO 323km
Mise à jour: 24/10/2014 17:00
Couvert
Couvert
 Wind from S
Vent: S 19 km/h
Température: 14°C
Point de Rosée: 12°C
Humidité: 88%
Baromètre: 1016 hPa
Nuages: Couvert
Visibilité: 10 km
Nuages details: Quelques Nuages 396 m
partiellement nuageux 1250 m
Couvert 1646 m
2014/10/24 15:00 LFOH 241500Z AUTO 19010KT 9999 FEW013 SCT041 OVC054 14/12 Q1016
LFRM - Le Mans/, France
Distance de la station: NO 166km
Mise à jour: 24/10/2014 17:00
partiellement nuageux
partiellement nuageux
 Wind from SSO
Vent: SSO 9 km/h
Température: 16°C
Point de Rosée: 9°C
Humidité: 63%
Baromètre: 1018 hPa
Nuages: partiellement nuageux
Visibilité: 10 km
2014/10/24 15:00 LFRM 241500Z AUTO 21005KT 150V240 9999 NSC 16/09 Q1018
 
LFRJ - Landivisiau/, France
Distance de la station: ONO 476km
Mise à jour: 24/10/2014 17:00
Couvert
Couvert
 Wind from OSO
Vent: OSO 15 km/h
Température: 16°C
Point de Rosée: 16°C
Humidité: 100%
Baromètre: 1015 hPa
Nuages: Couvert
Visibilité: 10 km
Nuages details: nuageux 152 m
Couvert 366 m
2014/10/24 15:00 LFRJ 241500Z AUTO 25008KT 9999 BKN005 OVC012 16/16 Q1015
LFRO - Lannion/, France
Distance de la station: ONO 441km
Mise à jour: 24/10/2014 17:00
pluie, Broulliard, Orage
pluie, Broulliard, Orage
 Wind from ONO
Vent: ONO 13 km/h
Température: 16°C
Point de Rosée: 15°C
Humidité: 94%
Baromètre: 1015 hPa
Récapitulatifs: pluie, Broulliard
Nuages: Orage
Visibilité: 3 km
Nuages details: partiellement nuageux 274 m
nuageux 457 m
nuageux 640 m
2014/10/24 15:00 LFRO 241500Z AUTO 29007KT 2700 RA BR SCT009/// BKN015/// BKN021/// ///TCU 16/15 Q1015
 
LFRL - Lanveoc/, France
Distance de la station: ONO 485km
Mise à jour: 24/10/2014 17:00
Couvert
Couvert
 Wind from O
Vent: O 13 km/h
Température: 16°C
Point de Rosée: 16°C
Humidité: 100%
Baromètre: 1016 hPa
Nuages: Couvert
Visibilité: 10 km
Nuages details: Couvert 91 m
2014/10/24 15:00 LFRL 241500Z AUTO 28007KT 9999 OVC003 16/16 Q1016
LFBL - Limoges/, France
Distance de la station: SSO 113km
Mise à jour: 24/10/2014 17:00
partiellement nuageux
partiellement nuageux
 Wind from variable
Vent: variable 4 km/h
Température: 17°C
Point de Rosée: 8°C
Humidité: 56%
Baromètre: 1019 hPa
Nuages: partiellement nuageux
Visibilité: 10 km
2014/10/24 15:00 LFBL 241500Z AUTO VRB02KT 9999 NSC 17/08 Q1019
 
LFQQ - Lille/, France
Distance de la station: NNE 430km
Mise à jour: 24/10/2014 17:00
nuageux
nuageux
 Wind from S
Vent: S 15 km/h
Température: 12°C
Point de Rosée: 11°C
Humidité: 94%
Baromètre: 1016 hPa
Nuages: nuageux
Visibilité: 10 km
Nuages details: nuageux 366 m
2014/10/24 15:00 LFQQ 241500Z 18008KT 9999 BKN012 12/11 Q1016 TEMPO 5000 RA BKN008
LFRH - Lorient/, France
Distance de la station: ONO 401km
Mise à jour: 24/10/2014 17:00
nuageux
nuageux
 Wind from OSO
Vent: OSO 17 km/h
Température: 17°C
Point de Rosée: 16°C
Humidité: 94%
Baromètre: 1016 hPa
Nuages: nuageux
Visibilité: 10 km
Nuages details: nuageux 152 m
nuageux 396 m
nuageux 853 m
2014/10/24 15:00 LFRH 241500Z AUTO 25009KT 9999 BKN005 BKN013 BKN028 17/16 Q1016
 
LFLY - Lyon/, France
Distance de la station: ESE 279km
Mise à jour: 24/10/2014 17:00
partiellement nuageux
partiellement nuageux
 Wind from NE
Vent: NE 9 km/h
Température: 15°C
Point de Rosée: 6°C
Humidité: 55%
Baromètre: 1019 hPa
Nuages: partiellement nuageux
Visibilité: 10 km
2014/10/24 15:00 LFLY 241500Z AUTO 04005KT 010V070 9999 NSC 15/06 Q1019
LFLL - Lyon/Satolas, France
Distance de la station: ESE 287km
Mise à jour: 24/10/2014 17:00
clair
clair
 Wind from NE
Vent: NE 7 km/h
Température: 13°C
Point de Rosée: 5°C
Humidité: 59%
Baromètre: 1019 hPa
Récapitulatifs: clair
Visibilité: supérieure à 10 km
2014/10/24 15:00 LFLL 241500Z 05004KT 020V100 CAVOK 13/05 Q1019 NOSIG
 
LFSX - Luxeuil/, France
Distance de la station: ENE 366km
Mise à jour: 24/10/2014 17:00
partiellement nuageux
partiellement nuageux
 Wind from S
Vent: S 6 km/h
Température: 14°C
Point de Rosée: 7°C
Humidité: 63%
Baromètre: 1019 hPa
Nuages: partiellement nuageux
Visibilité: 10 km
2014/10/24 15:00 LFSX 241500Z AUTO 17003KT 130V210 9999 NSC 14/07 Q1019
LFJR - Marce/, France
Distance de la station: NO 134km
Mise à jour: 24/10/2014 17:00
partiellement nuageux
partiellement nuageux
 Wind from S
Vent: S 6 km/h
Température: 16°C
Point de Rosée: 9°C
Humidité: 63%
Baromètre: 1018 hPa
Nuages: partiellement nuageux
Visibilité: 10 km
2014/10/24 15:00 LFJR 241500Z AUTO 19003KT 9999 NSC 16/09 Q1018
 
LFML - Marseille/, France
Distance de la station: SE 466km
Mise à jour: 24/10/2014 17:00
clair
clair
 Wind from O
Vent: O 9 km/h
Température: 20°C
Point de Rosée: 9°C
Humidité: 49%
Baromètre: 1014 hPa
Récapitulatifs: clair
Visibilité: supérieure à 10 km
2014/10/24 15:00 LFML 241500Z 26005KT CAVOK 20/09 Q1014 NOSIG
LFPM - Melun/, France
Distance de la station: NNE 213km
Mise à jour: 24/10/2014 17:00
partiellement nuageux
partiellement nuageux
 Wind from SSE
Vent: SSE 11 km/h
Température: 14°C
Point de Rosée: 9°C
Humidité: 72%
Baromètre: 1018 hPa
Nuages: partiellement nuageux
Visibilité: 10 km
2014/10/24 15:00 LFPM 241500Z AUTO 15006KT 9999 NSC 14/09 Q1018
 
LFJL - Metz-Nancy-Lorra/, France
Distance de la station: NE 416km
Mise à jour: 24/10/2014 17:00

 Wind from variable
Vent: variable 4 km/h
Visibilité: 10 km
2014/10/24 15:00 LFJL 241500Z AUTO VRB02KT 9999 2400 NSC 11/07 Q1019
LFBM - Mont-De-Marsan/, France
Distance de la station: SSO 365km
Mise à jour: 24/10/2014 17:00
partiellement nuageux
partiellement nuageux
 Wind from variable
Vent: variable 2 km/h
Température: 26°C
Point de Rosée: 5°C
Humidité: 26%
Baromètre: 1018 hPa
Nuages: partiellement nuageux
Visibilité: 10 km
2014/10/24 15:00 LFBM 241500Z AUTO VRB01KT 9999 NSC 26/05 Q1018
 
LFSO - Nancy/, France
Distance de la station: ENE 375km
Mise à jour: 24/10/2014 17:00
partiellement nuageux
partiellement nuageux
 Wind from variable
Vent: variable 4 km/h
Température: 12°C
Point de Rosée: 6°C
Humidité: 67%
Baromètre: 1019 hPa
Nuages: partiellement nuageux
Visibilité: 10 km
2014/10/24 15:00 LFSO 241500Z AUTO VRB02KT 9999 NSC 12/06 Q1019
LFRS - Nantes/, France
Distance de la station: O 252km
Mise à jour: 24/10/2014 17:00
clair
clair
 Wind from S
Vent: S 7 km/h
Température: 17°C
Point de Rosée: 10°C
Humidité: 64%
Baromètre: 1018 hPa
Récapitulatifs: clair
Visibilité: supérieure à 10 km
2014/10/24 15:00 LFRS 241500Z 19004KT CAVOK 17/10 Q1018 NOSIG
 
LFTW - Nimes/, France
Distance de la station: SE 402km
Mise à jour: 24/10/2014 17:00
partiellement nuageux
partiellement nuageux
 Wind from N
Vent: N 22 km/h
Température: 20°C
Point de Rosée: 5°C
Humidité: 38%
Baromètre: 1015 hPa
Nuages: partiellement nuageux
Visibilité: 10 km
2014/10/24 15:00 LFTW 241500Z AUTO 36012KT 340V040 9999 NSC 20/05 Q1015
LFMO - Orange/, France
Distance de la station: SE 387km
Mise à jour: 24/10/2014 17:00
partiellement nuageux
partiellement nuageux
 Wind from N
Vent: N 33 km/h, Rafale: 56 km/h
Température: 18°C
Point de Rosée: 5°C
Humidité: 43%
Baromètre: 1015 hPa
Nuages: partiellement nuageux
Visibilité: 10 km
2014/10/24 15:00 LFMO 241500Z AUTO 35018G30KT 9999 NSC 18/05 Q1015
 
LFOJ - Orleans/, France
Distance de la station: N 128km
Mise à jour: 24/10/2014 17:00
partiellement nuageux
partiellement nuageux
 Wind from S
Vent: S 11 km/h
Température: 15°C
Point de Rosée: 9°C
Humidité: 68%
Baromètre: 1018 hPa
Nuages: partiellement nuageux
Visibilité: 10 km
2014/10/24 15:00 LFOJ 241500Z AUTO 19006KT 9999 NSC 15/09 Q1018
LFPB - Paris/, France
Distance de la station: NNE 246km
Mise à jour: 24/10/2014 17:00
Couvert
Couvert
 Wind from SO
Vent: SO 15 km/h
Température: 15°C
Point de Rosée: 9°C
Humidité: 68%
Baromètre: 1018 hPa
Nuages: Couvert
Visibilité: 10 km
Nuages details: Couvert 914 m
2014/10/24 15:00 LFPB 241500Z AUTO 22008KT 9999 OVC030 15/09 Q1018
 
LFPO - Paris/Orly/, France
Distance de la station: NNE 218km
Mise à jour: 24/10/2014 17:00
nuageux
nuageux
 Wind from SSO
Vent: SSO 13 km/h
Température: 14°C
Point de Rosée: 9°C
Humidité: 72%
Baromètre: 1018 hPa
Nuages: nuageux
Visibilité: 10 km
Nuages details: nuageux 1006 m
2014/10/24 15:00 LFPO 241500Z 20007KT 170V230 9999 BKN033 14/09 Q1018 NOSIG
LFMP - Perpignan/, France
Distance de la station: SSE 465km
Mise à jour: 24/10/2014 17:00
nuageux
nuageux
 Wind from NO
Vent: NO 22 km/h
Température: 26°C
Point de Rosée: 4°C
Humidité: 24%
Baromètre: 1015 hPa
Nuages: nuageux
Visibilité: 10 km
Nuages details: Quelques Nuages 1219 m
nuageux 7620 m
2014/10/24 15:00 LFMP 241500Z 32012KT 300V010 9999 FEW040 BKN250 26/04 Q1015 NOSIG
 
LFBI - Poitiers/, France
Distance de la station: OSO 108km
Mise à jour: 24/10/2014 17:00
partiellement nuageux
partiellement nuageux
 Wind from SSE
Vent: SSE 6 km/h
Température: 17°C
Point de Rosée: 9°C
Humidité: 59%
Baromètre: 1018 hPa
Nuages: partiellement nuageux
Visibilité: 10 km
2014/10/24 15:00 LFBI 241500Z AUTO 16003KT 120V190 9999 NSC 17/09 Q1018
LFRQ - Quimper/, France
Distance de la station: ONO 458km
Mise à jour: 24/10/2014 17:00
Couvert
Couvert
 Wind from O
Vent: O 13 km/h
Température: 16°C
Point de Rosée: 16°C
Humidité: 100%
Baromètre: 1016 hPa
Nuages: Couvert
Visibilité: 10 km
Nuages details: Couvert 122 m
2014/10/24 15:00 LFRQ 241500Z AUTO 26007KT 9999 OVC004 16/16 Q1016
 
LFRN - Rennes/, France
Distance de la station: ONO 291km
Mise à jour: 24/10/2014 17:00
Couvert
Couvert
 Wind from S
Vent: S 17 km/h
Température: 17°C
Point de Rosée: 12°C
Humidité: 73%
Baromètre: 1017 hPa
Nuages: Couvert
Visibilité: 10 km
Nuages details: Couvert 884 m
2014/10/24 15:00 LFRN 241500Z AUTO 19009KT 9999 OVC029 17/12 Q1017
LFCR - Rodez/, France
Distance de la station: SSE 277km
Mise à jour: 24/10/2014 17:00
partiellement nuageux
partiellement nuageux
 Wind from NO
Vent: NO 9 km/h
Température: 17°C
Point de Rosée: 5°C
Humidité: 45%
Baromètre: 1019 hPa
Nuages: partiellement nuageux
Visibilité: 10 km
2014/10/24 15:00 LFCR 241500Z AUTO 31005KT 9999 NSC 17/05 Q1019
 
LFYR - Romorantin/, France
Distance de la station: N 56km
Mise à jour: 24/10/2014 17:00
partiellement nuageux
partiellement nuageux
 Wind from SSE
Vent: SSE 4 km/h
Température: 15°C
Point de Rosée: 9°C
Humidité: 68%
Baromètre: 1018 hPa
Nuages: partiellement nuageux
Visibilité: 10 km
2014/10/24 15:00 LFYR 241500Z AUTO 16002KT 9999 NSC 15/09 Q1018
LFOP - Rouen/, France
Distance de la station: N 286km
Mise à jour: 24/10/2014 17:00
pluie, Broulliard, Orage
pluie, Broulliard, Orage
 Wind from S
Vent: S 19 km/h
Température: 11°C
Point de Rosée: 11°C
Humidité: 100%
Baromètre: 1017 hPa
Récapitulatifs: pluie, Broulliard
Nuages: Orage
Visibilité: 4 km
Nuages details: nuageux 152 m
Couvert 274 m
2014/10/24 15:00 LFOP 241500Z AUTO 19010KT 4300 RA BR BKN005/// OVC009/// ///TCU 11/11 Q1017
 
LFMY - Salon/, France
Distance de la station: SE 446km
Mise à jour: 24/10/2014 17:00
partiellement nuageux
partiellement nuageux
 Wind from NNO
Vent: NNO 17 km/h
Température: 20°C
Point de Rosée: 7°C
Humidité: 43%
Baromètre: 1014 hPa
Nuages: partiellement nuageux
Visibilité: 10 km
2014/10/24 15:00 LFMY 241500Z AUTO 33009KT 290V350 9999 NSC 20/07 Q1014
LFST - Strasbourg/, France
Distance de la station: ENE 483km
Mise à jour: 24/10/2014 17:00
partiellement nuageux
partiellement nuageux
 Wind from variable
Vent: variable 2 km/h
Température: 14°C
Point de Rosée: 6°C
Humidité: 59%
Baromètre: 1020 hPa
Nuages: partiellement nuageux
Visibilité: 10 km
2014/10/24 15:00 LFST 241500Z AUTO VRB01KT 9999 NSC 14/06 Q1020
 
LFRT - Saint-Brieuc/, France
Distance de la station: ONO 388km
Mise à jour: 24/10/2014 17:00
Couvert
Couvert
 Wind from SO
Vent: SO 11 km/h
Température: 17°C
Point de Rosée: 15°C
Humidité: 88%
Baromètre: 1016 hPa
Nuages: Couvert
Visibilité: 10 km
Nuages details: nuageux 305 m
Couvert 457 m
2014/10/24 15:00 LFRT 241500Z AUTO 22006KT 150V270 9999 BKN010 OVC015 17/15 Q1016
LFSI - St. Dizier/, France
Distance de la station: NE 313km
Mise à jour: 24/10/2014 17:00
partiellement nuageux
partiellement nuageux
 Wind from variable
Vent: variable 6 km/h
Température: 14°C
Point de Rosée: 8°C
Humidité: 67%
Baromètre: 1019 hPa
Nuages: partiellement nuageux
Visibilité: 10 km
2014/10/24 15:00 LFSI 241500Z AUTO VRB03KT 9999 NSC 14/08 Q1019
 
LFMH - St Etienne/, France
Distance de la station: SE 247km
Mise à jour: 24/10/2014 17:00
clair
clair
 Wind from variable
Vent: variable 4 km/h
Température: 16°C
Point de Rosée: 4°C
Humidité: 45%
Baromètre: 1019 hPa
Récapitulatifs: clair
Visibilité: supérieure à 10 km
2014/10/24 15:00 LFMH 241500Z VRB02KT CAVOK 16/04 Q1019 NOSIG
LFRG - St Gatien/, France
Distance de la station: NNO 305km
Mise à jour: 24/10/2014 17:00
nuageux
nuageux
 Wind from SO
Vent: SO 17 km/h
Température: 13°C
Point de Rosée: 12°C
Humidité: 94%
Baromètre: 1017 hPa
Nuages: nuageux
Visibilité: 9 km
Nuages details: partiellement nuageux 305 m
nuageux 457 m
nuageux 1189 m
2014/10/24 15:00 LFRG 241500Z AUTO 22009KT 9000 SCT010 BKN015 BKN039 13/12 Q1017
 
LFRZ - St. Nazaire/, France
Distance de la station: ONO 297km
Mise à jour: 24/10/2014 17:00
Couvert
Couvert
 Wind from S
Vent: S 17 km/h
Température: 16°C
Point de Rosée: 12°C
Humidité: 77%
Baromètre: 1017 hPa
Nuages: Couvert
Visibilité: 10 km
Nuages details: nuageux 640 m
nuageux 853 m
Couvert 3353 m
2014/10/24 15:00 LFRZ 241500Z AUTO 19009KT 9999 BKN021 BKN028 OVC110 16/12 Q1017
LFLN - Saint Yan/, France
Distance de la station: ESE 184km
Mise à jour: 24/10/2014 17:00
partiellement nuageux
partiellement nuageux
 Wind from variable
Vent: variable 6 km/h
Température: 14°C
Point de Rosée: 8°C
Humidité: 67%
Baromètre: 1019 hPa
Nuages: partiellement nuageux
Visibilité: 10 km
2014/10/24 15:00 LFLN 241500Z AUTO VRB03KT 9999 NSC 14/08 Q1019
 
LFBT - Tarbes/, France
Distance de la station: SSO 427km
Mise à jour: 24/10/2014 17:00
partiellement nuageux
partiellement nuageux
 Wind from NO
Vent: NO 6 km/h
Température: 24°C
Point de Rosée: 7°C
Humidité: 34%
Baromètre: 1019 hPa
Nuages: partiellement nuageux
Visibilité: 10 km
2014/10/24 15:00 LFBT 241500Z AUTO 31003KT 280V340 9999 NSC 24/07 Q1019
LFSL - Toul/, France
Distance de la station: NE 356km
Mise à jour: 24/10/2014 17:00
partiellement nuageux
partiellement nuageux
 Wind from NNO
Vent: NNO 9 km/h
Température: 18°C
Point de Rosée: 8°C
Humidité: 52%
Baromètre: 1019 hPa
Nuages: partiellement nuageux
Visibilité: 10 km
2014/10/24 15:00 LFSL 241500Z AUTO 33005KT 9999 NSC 18/08 Q1019
 
LFBO - Toulouse/, France
Distance de la station: S 357km
Mise à jour: 24/10/2014 17:00
Quelques Nuages
Quelques Nuages
 Wind from NNO
Vent: NNO 7 km/h
Température: 21°C
Point de Rosée: 8°C
Humidité: 43%
Baromètre: 1019 hPa
Nuages: Quelques Nuages
Visibilité: 10 km
Nuages details: Quelques Nuages 610 m
2014/10/24 15:00 LFBO 241500Z AUTO 34004KT 310V010 9999 FEW020 21/08 Q1019
LFOT - Tours/, France
Distance de la station: NO 100km
Mise à jour: 24/10/2014 17:00
Couvert
Couvert
 Wind from S
Vent: S 7 km/h
Température: 15°C
Point de Rosée: 9°C
Humidité: 68%
Baromètre: 1018 hPa
Nuages: Couvert
Visibilité: 8 km
Nuages details: Quelques Nuages 914 m
Couvert 2987 m
2014/10/24 15:00 LFOT 241500Z AUTO 19004KT 160V220 8000 FEW030 OVC098 15/09 Q1018
 
LFPN - Toussus Le Noble/, France
Distance de la station: N 217km
Mise à jour: 24/10/2014 17:00
Couvert
Couvert
 Wind from S
Vent: S 15 km/h
Température: 14°C
Point de Rosée: 9°C
Humidité: 72%
Baromètre: 1018 hPa
Nuages: Couvert
Visibilité: 10 km
Nuages details: nuageux 884 m
Couvert 2073 m
2014/10/24 15:00 LFPN 241500Z AUTO 19008KT 9999 BKN029 OVC068 14/09 Q1018
LFPV - Villacoublay/, France
Distance de la station: N 220km
Mise à jour: 24/10/2014 17:00
Couvert
Couvert
 Wind from S
Vent: S 11 km/h
Température: 13°C
Point de Rosée: 9°C
Humidité: 77%
Baromètre: 1018 hPa
Nuages: Couvert
Visibilité: 10 km
Nuages details: nuageux 853 m
nuageux 1707 m
Couvert 2012 m
2014/10/24 15:00 LFPV 241500Z AUTO 19006KT 9999 BKN028 BKN056 OVC066 13/09 Q1018